Weather Data

Pearl Creek Farm: 8878 N Farm Road 75, Walnut Grove MO 65770

<== Previous Day (Friday 20 Mar 2009) | Next Day (Sunday 22 Mar 2009) ==>

Summary Precipitation Data For Saturday 21 March 2009

ElementValueUnits
Precipitation0.36"
Notes(none)
SourceSpringfield-Branson National Airport (SGF)

Summary Temperature Data For Saturday 21 March 2009

ElementValueUnits
High Temperature50 oF
Low Temperature43 oF
Average Temperature47 oF
High Humidity97 %
Low Humidity63 %
Average Humidity89 %
SourceSpringfield-Branson National Airport (SGF)

Detail Temperature Data For Saturday 21 March 2009

Date / TimeTemp (F)RH (%)Dew Pt (F)Report Date / TimeSource
2009-03-21 04:52:00 43 89 40.0 2017-12-29 19:14:24.89625 Springfield-Branson National Airport (SGF)
2009-03-21 05:52:00 43 93 41.0 2017-12-29 19:14:24.89625 Springfield-Branson National Airport (SGF)
2009-03-21 06:52:00 44 93 42.0 2017-12-29 19:14:24.89625 Springfield-Branson National Airport (SGF)
2009-03-21 07:52:00 44 93 42.0 2017-12-29 19:14:24.89625 Springfield-Branson National Airport (SGF)
2009-03-21 08:52:00 45 93 43.0 2017-12-29 19:14:24.89625 Springfield-Branson National Airport (SGF)
2009-03-21 09:52:00 46 93 44.0 2017-12-29 19:14:24.89625 Springfield-Branson National Airport (SGF)
2009-03-21 10:52:00 45 97 44.0 2017-12-29 19:14:24.89625 Springfield-Branson National Airport (SGF)
2009-03-21 11:52:00 47 93 45.0 2017-12-29 19:14:24.89625 Springfield-Branson National Airport (SGF)
2009-03-21 12:52:00 48 93 46.0 2017-12-29 19:14:24.89625 Springfield-Branson National Airport (SGF)
2009-03-21 00:52:00 47 63 35.0 2017-12-29 19:14:24.89625 Springfield-Branson National Airport (SGF)
2009-03-21 01:52:00 45 77 38.0 2017-12-29 19:14:24.89625 Springfield-Branson National Airport (SGF)
2009-03-21 02:52:00 45 77 38.0 2017-12-29 19:14:24.89625 Springfield-Branson National Airport (SGF)
2009-03-21 03:52:00 45 77 38.0 2017-12-29 19:14:24.89625 Springfield-Branson National Airport (SGF)
2009-03-21 13:52:00 49 93 47.0 2017-12-29 19:14:24.89625 Springfield-Branson National Airport (SGF)
2009-03-21 14:52:00 49 93 47.0 2017-12-29 19:14:24.89625 Springfield-Branson National Airport (SGF)
2009-03-21 15:52:00 49 93 47.0 2017-12-29 19:14:24.89625 Springfield-Branson National Airport (SGF)
2009-03-21 16:52:00 50 89 47.0 2017-12-29 19:14:24.89625 Springfield-Branson National Airport (SGF)
2009-03-21 17:52:00 50 93 48.0 2017-12-29 19:14:24.89625 Springfield-Branson National Airport (SGF)
2009-03-21 18:52:00 49 93 47.0 2017-12-29 19:14:24.89625 Springfield-Branson National Airport (SGF)
2009-03-21 20:52:00 48 93 46.0 2017-12-29 19:14:24.89625 Springfield-Branson National Airport (SGF)
2009-03-21 21:52:00 48 89 45.0 2017-12-29 19:14:24.89625 Springfield-Branson National Airport (SGF)
2009-03-21 22:52:00 47 90 44.0 2017-12-29 19:14:24.89625 Springfield-Branson National Airport (SGF)
2009-03-21 23:52:00 47 86 43.0 2017-12-29 19:14:24.89625 Springfield-Branson National Airport (SGF)
2009-03-21 19:52:00 48 93 46.0 2017-12-29 19:14:24.89625 Springfield-Branson National Airport (SGF)

A total of 24 rows are displayed.